sensor_id;sensor_type;location;lat;lon;timestamp;pressure;altitude;pressure_sealevel;temperature;humidity
50696;BME280;36665;51.786;21.594;2023-05-19T00:02:31;95946.74;;;9.70;67.75
50696;BME280;36665;51.786;21.594;2023-05-19T00:10:57;95942.98;;;9.69;67.94
50696;BME280;36665;51.786;21.594;2023-05-19T00:19:20;95940.77;;;9.69;67.76
50696;BME280;36665;51.786;21.594;2023-05-19T00:27:44;95945.48;;;9.70;67.85
50696;BME280;36665;51.786;21.594;2023-05-19T00:36:07;95940.83;;;9.68;67.95
50696;BME280;36665;51.786;21.594;2023-05-19T00:44:30;95935.70;;;9.67;68.02
50696;BME280;36665;51.786;21.594;2023-05-19T00:52:54;95919.83;;;9.62;68.05
50696;BME280;36665;51.786;21.594;2023-05-19T01:01:17;95875.68;;;9.51;67.87
50696;BME280;36665;51.786;21.594;2023-05-19T01:09:45;95841.73;;;9.43;67.96
50696;BME280;36665;51.786;21.594;2023-05-19T01:18:13;95851.32;;;9.44;68.02
50696;BME280;36665;51.786;21.594;2023-05-19T01:35:22;95839.00;;;9.40;68.00
50696;BME280;36665;51.786;21.594;2023-05-19T01:43:47;95818.99;;;9.35;68.02
50696;BME280;36665;51.786;21.594;2023-05-19T01:52:11;95814.00;;;9.33;68.12
50696;BME280;36665;51.786;21.594;2023-05-19T02:01:08;95816.51;;;9.34;68.16
50696;BME280;36665;51.786;21.594;2023-05-19T02:17:57;95846.73;;;9.42;68.09
50696;BME280;36665;51.786;21.594;2023-05-19T02:26:22;95839.77;;;9.40;68.11
50696;BME280;36665;51.786;21.594;2023-05-19T02:34:45;95828.45;;;9.37;68.28
50696;BME280;36665;51.786;21.594;2023-05-19T02:43:08;95818.93;;;9.34;68.22
50696;BME280;36665;51.786;21.594;2023-05-19T02:51:31;95824.52;;;9.36;68.37
50696;BME280;36665;51.786;21.594;2023-05-19T02:59:54;95817.03;;;9.33;68.36
50696;BME280;36665;51.786;21.594;2023-05-19T03:08:18;95818.84;;;9.33;68.38
50696;BME280;36665;51.786;21.594;2023-05-19T03:16:41;95818.58;;;9.34;68.33
50696;BME280;36665;51.786;21.594;2023-05-19T03:25:04;95821.44;;;9.34;68.37
50696;BME280;36665;51.786;21.594;2023-05-19T03:33:27;95849.55;;;9.41;68.40
50696;BME280;36665;51.786;21.594;2023-05-19T03:41:52;95857.48;;;9.44;68.64
50696;BME280;36665;51.786;21.594;2023-05-19T03:50:15;95862.62;;;9.45;68.42
50696;BME280;36665;51.786;21.594;2023-05-19T03:58:56;95887.66;;;9.50;68.54
50696;BME280;36665;51.786;21.594;2023-05-19T04:07:19;95921.31;;;9.58;68.58
50696;BME280;36665;51.786;21.594;2023-05-19T04:15:42;95948.52;;;9.65;68.64
50696;BME280;36665;51.786;21.594;2023-05-19T04:24:05;95982.71;;;9.73;68.67
50696;BME280;36665;51.786;21.594;2023-05-19T04:32:29;96012.04;;;9.81;68.64
50696;BME280;36665;51.786;21.594;2023-05-19T04:40:53;96028.90;;;9.85;68.77
50696;BME280;36665;51.786;21.594;2023-05-19T04:49:19;96054.71;;;9.92;68.89
50696;BME280;36665;51.786;21.594;2023-05-19T04:57:42;96106.31;;;10.05;69.06
50696;BME280;36665;51.786;21.594;2023-05-19T05:06:06;96171.00;;;10.20;68.98
50696;BME280;36665;51.786;21.594;2023-05-19T05:14:29;96270.23;;;10.46;68.99
50696;BME280;36665;51.786;21.594;2023-05-19T05:22:53;96281.27;;;10.48;69.11
50696;BME280;36665;51.786;21.594;2023-05-19T05:31:17;96277.65;;;10.47;69.09
50696;BME280;36665;51.786;21.594;2023-05-19T05:39:40;96312.34;;;10.56;69.08
50696;BME280;36665;51.786;21.594;2023-05-19T05:48:03;96357.84;;;10.67;69.14
50696;BME280;36665;51.786;21.594;2023-05-19T05:56:27;96438.91;;;10.87;69.24
50696;BME280;36665;51.786;21.594;2023-05-19T06:04:50;96477.03;;;10.97;69.27
50696;BME280;36665;51.786;21.594;2023-05-19T06:13:16;96520.19;;;11.08;69.33
50696;BME280;36665;51.786;21.594;2023-05-19T06:21:44;96536.16;;;11.12;69.35
50696;BME280;36665;51.786;21.594;2023-05-19T06:30:08;96544.70;;;11.14;69.33
50696;BME280;36665;51.786;21.594;2023-05-19T06:38:40;96543.69;;;11.13;69.28
50696;BME280;36665;51.786;21.594;2023-05-19T06:47:03;96537.70;;;11.11;69.36
50696;BME280;36665;51.786;21.594;2023-05-19T06:55:26;96558.23;;;11.17;69.28
50696;BME280;36665;51.786;21.594;2023-05-19T07:03:51;96581.58;;;11.22;69.42
50696;BME280;36665;51.786;21.594;2023-05-19T07:12:16;96643.86;;;11.37;69.31
50696;BME280;36665;51.786;21.594;2023-05-19T07:20:39;96678.98;;;11.46;69.64
50696;BME280;36665;51.786;21.594;2023-05-19T07:29:05;96703.53;;;11.52;69.59
50696;BME280;36665;51.786;21.594;2023-05-19T07:37:28;96777.85;;;11.72;69.70
50696;BME280;36665;51.786;21.594;2023-05-19T07:45:51;96824.70;;;11.82;69.51
50696;BME280;36665;51.786;21.594;2023-05-19T07:54:15;96849.60;;;11.89;69.58
50696;BME280;36665;51.786;21.594;2023-05-19T08:02:38;96869.21;;;11.94;69.59
50696;BME280;36665;51.786;21.594;2023-05-19T08:11:03;96921.92;;;12.06;69.74
50696;BME280;36665;51.786;21.594;2023-05-19T08:19:26;96958.19;;;12.15;69.83
50696;BME280;36665;51.786;21.594;2023-05-19T08:27:49;96995.59;;;12.24;69.57
50696;BME280;36665;51.786;21.594;2023-05-19T08:36:12;97052.46;;;12.37;69.66
50696;BME280;36665;51.786;21.594;2023-05-19T08:44:36;97140.23;;;12.60;69.78
50696;BME280;36665;51.786;21.594;2023-05-19T08:53:09;97176.63;;;12.69;69.73
50696;BME280;36665;51.786;21.594;2023-05-19T09:01:54;97280.19;;;12.94;69.80
50696;BME280;36665;51.786;21.594;2023-05-19T09:10:17;97307.65;;;13.00;69.81
50696;BME280;36665;51.786;21.594;2023-05-19T09:18:52;97277.84;;;12.93;69.75
50696;BME280;36665;51.786;21.594;2023-05-19T09:27:20;97283.65;;;12.95;69.87
50696;BME280;36665;51.786;21.594;2023-05-19T09:35:47;97333.38;;;13.06;69.92
50696;BME280;36665;51.786;21.594;2023-05-19T09:44:24;97344.48;;;13.09;69.73
50696;BME280;36665;51.786;21.594;2023-05-19T09:52:51;97376.91;;;13.17;69.93
50696;BME280;36665;51.786;21.594;2023-05-19T10:01:15;97396.84;;;13.23;69.86
50696;BME280;36665;51.786;21.594;2023-05-19T10:09:40;97390.19;;;13.21;70.00
50696;BME280;36665;51.786;21.594;2023-05-19T10:18:05;97446.90;;;13.35;69.77
50696;BME280;36665;51.786;21.594;2023-05-19T10:26:31;97447.92;;;13.35;69.85
50696;BME280;36665;51.786;21.594;2023-05-19T10:52:41;97435.58;;;13.30;69.88
50696;BME280;36665;51.786;21.594;2023-05-19T11:01:13;97556.52;;;13.61;69.83
50696;BME280;36665;51.786;21.594;2023-05-19T11:09:41;97678.70;;;13.90;69.82
50696;BME280;36665;51.786;21.594;2023-05-19T11:18:05;97704.52;;;13.97;69.83
50696;BME280;36665;51.786;21.594;2023-05-19T11:26:41;97761.16;;;14.11;69.84
50696;BME280;36665;51.786;21.594;2023-05-19T11:35:08;97759.59;;;14.11;70.02
50696;BME280;36665;51.786;21.594;2023-05-19T11:43:47;97702.66;;;13.97;69.87
50696;BME280;36665;51.786;21.594;2023-05-19T12:01:52;97717.25;;;14.00;69.81
50696;BME280;36665;51.786;21.594;2023-05-19T12:10:35;97715.66;;;14.00;69.85
50696;BME280;36665;51.786;21.594;2023-05-19T12:20:15;97698.11;;;13.95;69.79
50696;BME280;36665;51.786;21.594;2023-05-19T12:28:54;97731.11;;;14.04;69.83
50696;BME280;36665;51.786;21.594;2023-05-19T12:38:45;97939.65;;;14.54;69.94
50696;BME280;36665;51.786;21.594;2023-05-19T12:47:34;98018.11;;;14.73;69.81
50696;BME280;36665;51.786;21.594;2023-05-19T12:55:58;97974.42;;;14.62;69.88
50696;BME280;36665;51.786;21.594;2023-05-19T13:04:23;97937.09;;;14.53;69.91
50696;BME280;36665;51.786;21.594;2023-05-19T13:12:46;97890.34;;;14.42;69.68
50696;BME280;36665;51.786;21.594;2023-05-19T13:21:09;97919.27;;;14.49;69.66
50696;BME280;36665;51.786;21.594;2023-05-19T13:29:32;97931.08;;;14.52;69.87
50696;BME280;36665;51.786;21.594;2023-05-19T13:37:55;97891.56;;;14.42;69.82
50696;BME280;36665;51.786;21.594;2023-05-19T13:46:18;97860.08;;;14.34;69.75
50696;BME280;36665;51.786;21.594;2023-05-19T13:54:55;97812.89;;;14.23;69.69
50696;BME280;36665;51.786;21.594;2023-05-19T14:03:18;97790.13;;;14.17;69.67
50696;BME280;36665;51.786;21.594;2023-05-19T14:11:42;97784.61;;;14.16;69.62
50696;BME280;36665;51.786;21.594;2023-05-19T14:20:05;97780.13;;;14.15;69.49
50696;BME280;36665;51.786;21.594;2023-05-19T14:28:29;97757.70;;;14.09;69.69
50696;BME280;36665;51.786;21.594;2023-05-19T14:36:52;97750.51;;;14.07;69.79
50696;BME280;36665;51.786;21.594;2023-05-19T14:45:15;97744.79;;;14.06;69.48
50696;BME280;36665;51.786;21.594;2023-05-19T14:53:38;97745.84;;;14.06;69.72
50696;BME280;36665;51.786;21.594;2023-05-19T15:02:01;97742.45;;;14.05;69.55
50696;BME280;36665;51.786;21.594;2023-05-19T15:10:24;97768.91;;;14.12;69.77
50696;BME280;36665;51.786;21.594;2023-05-19T15:18:47;97795.58;;;14.17;69.69
50696;BME280;36665;51.786;21.594;2023-05-19T15:27:10;97772.46;;;14.13;69.66
50696;BME280;36665;51.786;21.594;2023-05-19T15:35:33;97757.92;;;14.09;69.79
50696;BME280;36665;51.786;21.594;2023-05-19T15:43:56;97766.92;;;14.10;69.89
50696;BME280;36665;51.786;21.594;2023-05-19T15:52:22;97785.08;;;14.15;69.83
50696;BME280;36665;51.786;21.594;2023-05-19T16:00:45;97803.45;;;14.19;69.70
50696;BME280;36665;51.786;21.594;2023-05-19T16:09:08;97779.55;;;14.12;69.81
50696;BME280;36665;51.786;21.594;2023-05-19T16:17:31;97761.53;;;14.08;69.67
50696;BME280;36665;51.786;21.594;2023-05-19T16:25:54;97735.71;;;14.02;69.83
50696;BME280;36665;51.786;21.594;2023-05-19T16:34:19;97763.19;;;14.09;69.82
50696;BME280;36665;51.786;21.594;2023-05-19T16:42:41;97750.64;;;14.06;69.91
50696;BME280;36665;51.786;21.594;2023-05-19T16:51:04;97698.90;;;13.92;69.67
50696;BME280;36665;51.786;21.594;2023-05-19T16:59:28;97656.56;;;13.82;69.64
50696;BME280;36665;51.786;21.594;2023-05-19T17:07:51;97629.46;;;13.75;69.76
50696;BME280;36665;51.786;21.594;2023-05-19T17:16:14;97614.89;;;13.71;69.60
50696;BME280;36665;51.786;21.594;2023-05-19T17:24:37;97618.96;;;13.72;69.92
50696;BME280;36665;51.786;21.594;2023-05-19T17:33:01;97610.90;;;13.71;69.82
50696;BME280;36665;51.786;21.594;2023-05-19T17:41:24;97595.18;;;13.66;69.74
50696;BME280;36665;51.786;21.594;2023-05-19T17:49:48;97556.70;;;13.56;69.96
50696;BME280;36665;51.786;21.594;2023-05-19T17:58:14;97517.58;;;13.47;69.95
50696;BME280;36665;51.786;21.594;2023-05-19T18:06:39;97501.58;;;13.43;69.86
50696;BME280;36665;51.786;21.594;2023-05-19T18:15:02;97504.06;;;13.43;69.86
50696;BME280;36665;51.786;21.594;2023-05-19T18:23:25;97504.05;;;13.43;69.81
50696;BME280;36665;51.786;21.594;2023-05-19T18:31:48;97484.88;;;13.38;70.01
50696;BME280;36665;51.786;21.594;2023-05-19T18:40:11;97455.89;;;13.31;69.89
50696;BME280;36665;51.786;21.594;2023-05-19T18:48:34;97415.91;;;13.21;70.07
50696;BME280;36665;51.786;21.594;2023-05-19T18:56:58;97403.61;;;13.19;70.02
50696;BME280;36665;51.786;21.594;2023-05-19T19:05:21;97414.55;;;13.20;70.05
50696;BME280;36665;51.786;21.594;2023-05-19T19:13:44;97407.05;;;13.18;69.84
50696;BME280;36665;51.786;21.594;2023-05-19T19:22:07;97407.37;;;13.18;69.95
50696;BME280;36665;51.786;21.594;2023-05-19T19:30:30;97411.14;;;13.17;70.04
50696;BME280;36665;51.786;21.594;2023-05-19T19:38:54;97430.69;;;13.22;70.29
50696;BME280;36665;51.786;21.594;2023-05-19T19:47:17;97432.46;;;13.24;70.20
50696;BME280;36665;51.786;21.594;2023-05-19T19:55:39;97436.29;;;13.24;70.23
50696;BME280;36665;51.786;21.594;2023-05-19T20:04:03;97452.35;;;13.27;70.14
50696;BME280;36665;51.786;21.594;2023-05-19T20:12:26;97438.55;;;13.23;70.36
50696;BME280;36665;51.786;21.594;2023-05-19T20:20:49;97416.58;;;13.18;70.44
50696;BME280;36665;51.786;21.594;2023-05-19T20:29:12;97412.00;;;13.16;70.42
50696;BME280;36665;51.786;21.594;2023-05-19T20:37:35;97422.60;;;13.19;70.39
50696;BME280;36665;51.786;21.594;2023-05-19T20:45:58;97423.73;;;13.18;70.60
50696;BME280;36665;51.786;21.594;2023-05-19T20:54:23;97423.46;;;13.19;70.63
50696;BME280;36665;51.786;21.594;2023-05-19T21:02:46;97446.09;;;13.23;70.80
50696;BME280;36665;51.786;21.594;2023-05-19T21:11:09;97447.96;;;13.23;70.81
50696;BME280;36665;51.786;21.594;2023-05-19T21:19:33;97426.17;;;13.18;70.84
50696;BME280;36665;51.786;21.594;2023-05-19T21:27:58;97394.23;;;13.09;70.86
50696;BME280;36665;51.786;21.594;2023-05-19T21:36:20;97385.69;;;13.07;70.94
50696;BME280;36665;51.786;21.594;2023-05-19T21:44:44;97374.83;;;13.05;70.76
50696;BME280;36665;51.786;21.594;2023-05-19T21:53:08;97357.77;;;13.01;70.90
50696;BME280;36665;51.786;21.594;2023-05-19T22:01:31;97373.19;;;13.04;70.94
50696;BME280;36665;51.786;21.594;2023-05-19T22:09:54;97377.56;;;13.04;70.97
50696;BME280;36665;51.786;21.594;2023-05-19T22:18:17;97356.66;;;12.99;71.19
50696;BME280;36665;51.786;21.594;2023-05-19T22:26:40;97343.75;;;12.95;71.18
50696;BME280;36665;51.786;21.594;2023-05-19T22:35:06;97341.30;;;12.95;71.11
50696;BME280;36665;51.786;21.594;2023-05-19T22:43:30;97355.23;;;12.98;71.40
50696;BME280;36665;51.786;21.594;2023-05-19T22:51:53;97353.23;;;12.97;71.25
50696;BME280;36665;51.786;21.594;2023-05-19T23:00:16;97342.20;;;12.94;71.25
50696;BME280;36665;51.786;21.594;2023-05-19T23:08:44;97342.07;;;12.93;71.19
50696;BME280;36665;51.786;21.594;2023-05-19T23:17:08;97316.88;;;12.87;71.24
50696;BME280;36665;51.786;21.594;2023-05-19T23:25:31;97316.75;;;12.87;71.32
50696;BME280;36665;51.786;21.594;2023-05-19T23:33:54;97322.38;;;12.88;71.43
50696;BME280;36665;51.786;21.594;2023-05-19T23:42:17;97310.35;;;12.86;71.42
50696;BME280;36665;51.786;21.594;2023-05-19T23:50:40;97312.86;;;12.85;71.52
50696;BME280;36665;51.786;21.594;2023-05-19T23:59:03;97301.89;;;12.82;71.56
